createdAt,value
2023-03-25T00:01:01.809Z,0
2023-03-25T00:06:26.269Z,0
2023-03-25T00:11:49.851Z,0
2023-03-25T00:17:59.494Z,0
2023-03-25T00:23:22.764Z,0
2023-03-25T00:28:48.873Z,0
2023-03-25T00:34:11.659Z,0
2023-03-25T00:39:37.129Z,0
2023-03-25T00:45:58.573Z,0
2023-03-25T00:51:21.015Z,0
2023-03-25T00:56:43.984Z,0
2023-03-25T01:02:09.329Z,0
2023-03-25T01:07:32.094Z,0
2023-03-25T01:12:54.864Z,0
2023-03-25T01:18:17.020Z,0
2023-03-25T01:23:39.473Z,0
2023-03-25T01:29:11.053Z,0
2023-03-25T01:34:33.718Z,0
2023-03-25T01:39:56.337Z,0
2023-03-25T01:45:30.823Z,0
2023-03-25T01:50:53.379Z,0
2023-03-25T01:56:23.352Z,0
2023-03-25T02:01:45.851Z,0
2023-03-25T02:07:08.483Z,0
2023-03-25T02:12:34.103Z,0
2023-03-25T02:17:56.923Z,0
2023-03-25T02:23:19.572Z,0
2023-03-25T02:28:42.090Z,0
2023-03-25T02:34:04.652Z,0
2023-03-25T02:39:27.198Z,0
2023-03-25T02:44:49.588Z,0
2023-03-25T02:50:12.366Z,0
2023-03-25T02:55:35.097Z,0
2023-03-25T03:00:57.728Z,0
2023-03-25T03:06:20.640Z,0
2023-03-25T03:11:53.516Z,0
2023-03-25T03:17:16.146Z,0
2023-03-25T03:22:39.203Z,0
2023-03-25T03:28:01.740Z,0
2023-03-25T03:33:24.039Z,0
2023-03-25T03:38:47.014Z,0
2023-03-25T03:44:09.652Z,0
2023-03-25T03:49:32.212Z,0
2023-03-25T03:54:54.942Z,0
2023-03-25T04:00:20.314Z,0
2023-03-25T04:05:42.967Z,0
2023-03-25T04:11:05.487Z,0
2023-03-25T04:16:30.346Z,0
2023-03-25T04:21:53.259Z,0
2023-03-25T04:27:15.941Z,0
2023-03-25T04:32:38.507Z,0
2023-03-25T04:38:01.346Z,0
2023-03-25T04:43:53.067Z,0
2023-03-25T04:49:15.675Z,0
2023-03-25T04:54:38.122Z,0
2023-03-25T05:00:00.888Z,0
2023-03-25T05:05:43.867Z,0
2023-03-25T05:11:09.486Z,0
2023-03-25T05:16:32.703Z,0
2023-03-25T05:21:55.846Z,0
2023-03-25T05:27:38.898Z,0
2023-03-25T05:33:02.415Z,0.1
2023-03-25T05:38:25.241Z,0.1
2023-03-25T05:43:48.315Z,0.1
2023-03-25T05:49:11.722Z,0
2023-03-25T05:54:44.651Z,0.1
2023-03-25T06:00:07.100Z,0.2
2023-03-25T06:05:51.991Z,0.2
2023-03-25T06:11:20.471Z,0.4
2023-03-25T06:16:43.233Z,0.4
2023-03-25T06:22:08.561Z,0.1
2023-03-25T06:27:51.924Z,0.1
2023-03-25T06:33:14.242Z,0.1
2023-03-25T06:39:06.848Z,0.2
2023-03-25T06:44:29.477Z,0.4
2023-03-25T06:49:52.976Z,0.6
2023-03-25T06:55:16.054Z,0.5
2023-03-25T07:00:38.945Z,0.5
2023-03-25T07:06:01.568Z,0.4
2023-03-25T07:11:24.568Z,0.5
2023-03-25T07:16:58.131Z,0.3
2023-03-25T07:22:31.891Z,0.3
2023-03-25T07:27:54.744Z,0.3
2023-03-25T07:33:17.922Z,0.3
2023-03-25T07:38:40.066Z,0.3
2023-03-25T07:44:02.546Z,0.3
2023-03-25T07:49:25.312Z,1.4
2023-03-25T07:54:51.222Z,0.9
2023-03-25T08:00:13.760Z,0.8
2023-03-25T08:05:37.104Z,1
2023-03-25T08:10:58.955Z,2.1
2023-03-25T08:16:23.093Z,3.6
2023-03-25T08:21:46.864Z,1.3
2023-03-25T08:27:13.971Z,1.4
2023-03-25T08:32:42.770Z,1.6
2023-03-25T08:38:07.973Z,1
2023-03-25T08:43:30.191Z,0.9
2023-03-25T08:48:56.606Z,1.2
2023-03-25T08:54:18.855Z,1.6
2023-03-25T08:59:41.298Z,3.2
2023-03-25T09:05:03.161Z,1.3
2023-03-25T09:10:32.316Z,1.9
2023-03-25T09:15:55.859Z,4.8
2023-03-25T09:21:19.006Z,1.2
2023-03-25T09:26:44.033Z,1.1
2023-03-25T09:32:06.813Z,6.2
2023-03-25T09:37:29.850Z,7.5
2023-03-25T09:42:53.206Z,1.5
2023-03-25T09:48:14.579Z,0.7
2023-03-25T09:53:36.102Z,0.6
2023-03-25T09:58:59.034Z,0.8
2023-03-25T10:04:25.013Z,4.5
2023-03-25T10:09:50.639Z,6.6
2023-03-25T10:15:13.890Z,3.1
2023-03-25T10:20:37.330Z,0.9
2023-03-25T10:25:58.151Z,0.8
2023-03-25T10:31:19.655Z,0.9
2023-03-25T10:36:41.327Z,1.4
2023-03-25T10:42:05.145Z,1.6
2023-03-25T10:47:30.036Z,1.6
2023-03-25T10:52:55.502Z,1.9
2023-03-25T10:58:18.904Z,1.4
2023-03-25T11:03:57.735Z,2.8
2023-03-25T11:09:21.632Z,1.1
2023-03-25T11:14:43.877Z,4.1
2023-03-25T11:20:08.697Z,4.5
2023-03-25T11:25:30.028Z,3
2023-03-25T11:30:52.737Z,7.7
2023-03-25T11:36:18.430Z,6.3
2023-03-25T11:41:41.144Z,7.5
2023-03-25T11:47:04.839Z,2.6
2023-03-25T11:52:27.168Z,7.1
2023-03-25T11:57:49.986Z,2.2
2023-03-25T12:03:11.626Z,2.9
2023-03-25T12:08:36.889Z,6.4
2023-03-25T12:13:59.612Z,2
2023-03-25T12:19:20.492Z,2.5
2023-03-25T12:24:41.737Z,2.1
2023-03-25T12:35:44.093Z,3
2023-03-25T12:41:09.435Z,1.8
2023-03-25T12:46:30.020Z,1.7
2023-03-25T12:51:51.411Z,0.8
2023-03-25T12:57:13.695Z,0.9
2023-03-25T13:02:36.654Z,0.7
2023-03-25T13:08:02.927Z,0.3
2023-03-25T13:13:24.976Z,0.1
2023-03-25T13:18:47.572Z,0.2
2023-03-25T13:24:12.499Z,0.4
2023-03-25T13:29:35.739Z,0.4
2023-03-25T13:34:58.651Z,0.2
2023-03-25T13:40:21.105Z,0.3
2023-03-25T13:45:44.254Z,2.5
2023-03-25T13:51:07.952Z,1.3
2023-03-25T13:56:31.954Z,1.9
2023-03-25T14:01:57.414Z,4.8
2023-03-25T14:07:26.573Z,2.3
2023-03-25T14:12:45.715Z,0.7
2023-03-25T14:18:07.757Z,1.2
2023-03-25T14:23:36.992Z,0.9
2023-03-25T14:29:06.563Z,1.8
2023-03-25T14:34:29.327Z,0.5
2023-03-25T14:40:02.710Z,0.6
2023-03-25T14:45:28.349Z,1.8
2023-03-25T14:50:56.786Z,1.4
2023-03-25T14:56:22.256Z,5
2023-03-25T15:01:48.163Z,1.3
2023-03-25T15:07:09.218Z,0.5
2023-03-25T15:12:31.500Z,1.3
2023-03-25T15:17:54.497Z,1
2023-03-25T15:23:16.336Z,0.6
2023-03-25T15:28:41.737Z,0.5
2023-03-25T15:34:03.855Z,0.4
2023-03-25T15:39:43.954Z,0.5
2023-03-25T15:45:06.604Z,0.3
2023-03-25T15:50:29.047Z,0.5
2023-03-25T15:55:51.840Z,0.3
2023-03-25T16:01:14.320Z,0.2
2023-03-25T16:06:37.615Z,0.2
2023-03-25T16:12:06.577Z,0.6
2023-03-25T16:17:29.506Z,0.3
2023-03-25T16:22:52.253Z,0.2
2023-03-25T16:28:22.641Z,0.3
2023-03-25T16:33:45.888Z,0.4
2023-03-25T16:39:08.957Z,0.3
2023-03-25T16:44:32.761Z,0.4
2023-03-25T16:49:55.509Z,0.1
2023-03-25T16:55:18.033Z,0.2
2023-03-25T17:01:07.197Z,0.5
2023-03-25T17:06:29.848Z,0.3
2023-03-25T17:11:52.263Z,0.1
2023-03-25T17:17:15.066Z,0.1
2023-03-25T17:22:37.714Z,0.1
2023-03-25T17:27:59.960Z,0.1
2023-03-25T17:33:32.071Z,0.1
2023-03-25T17:38:55.120Z,0.1
2023-03-25T17:44:17.478Z,0
2023-03-25T17:49:40.047Z,0
2023-03-25T17:55:02.676Z,0
2023-03-25T18:00:25.164Z,0
2023-03-25T18:05:47.663Z,0
2023-03-25T18:11:10.495Z,0
2023-03-25T18:16:32.817Z,0
2023-03-25T18:22:04.356Z,0
2023-03-25T18:27:45.545Z,0
2023-03-25T18:33:11.686Z,0
2023-03-25T18:38:36.976Z,0
2023-03-25T18:44:06.602Z,0
2023-03-25T18:49:29.747Z,0
2023-03-25T18:54:57.342Z,0
2023-03-25T19:00:26.108Z,0
2023-03-25T19:05:52.985Z,0
2023-03-25T19:11:21.318Z,0
2023-03-25T19:16:53.969Z,0
2023-03-25T19:22:29.438Z,0
2023-03-25T19:27:53.154Z,0
2023-03-25T19:33:16.309Z,0
2023-03-25T19:38:41.686Z,0
2023-03-25T19:44:05.214Z,0
2023-03-25T19:49:39.039Z,0
2023-03-25T19:55:03.816Z,0
2023-03-25T20:00:28.402Z,0
2023-03-25T20:05:54.999Z,0
2023-03-25T20:11:22.999Z,0
2023-03-25T20:16:47.426Z,0
2023-03-25T20:22:28.984Z,0
2023-03-25T20:27:51.973Z,0
2023-03-25T20:33:17.495Z,0
2023-03-25T20:39:00.903Z,0
2023-03-25T20:44:40.251Z,0
2023-03-25T20:50:08.411Z,0
2023-03-25T20:55:30.739Z,0
2023-03-25T21:00:53.462Z,0
2023-03-25T21:06:23.907Z,0
2023-03-25T21:11:51.304Z,0
2023-03-25T21:17:14.197Z,0
2023-03-25T21:22:45.048Z,0
2023-03-25T21:28:08.592Z,0
2023-03-25T21:33:35.510Z,0
2023-03-25T21:39:10.487Z,0
2023-03-25T21:44:38.118Z,0
2023-03-25T21:50:02.648Z,0
2023-03-25T21:55:47.199Z,0
2023-03-25T22:01:12.266Z,0
2023-03-25T22:06:34.951Z,0
2023-03-25T22:11:58.658Z,0
2023-03-25T22:17:24.295Z,0
2023-03-25T22:22:54.869Z,0
2023-03-25T22:28:17.540Z,0
2023-03-25T22:33:43.967Z,0
2023-03-25T22:39:06.656Z,0
2023-03-25T22:44:31.854Z,0
2023-03-25T22:49:54.567Z,0
2023-03-25T22:55:25.757Z,0
2023-03-25T23:00:48.387Z,0
2023-03-25T23:06:12.806Z,0
2023-03-25T23:11:37.756Z,0
2023-03-25T23:17:01.513Z,0
2023-03-25T23:22:24.678Z,0
2023-03-25T23:27:49.521Z,0
2023-03-25T23:33:34.515Z,0
2023-03-25T23:38:59.920Z,0
2023-03-25T23:44:24.647Z,0
2023-03-25T23:49:47.436Z,0
